sensor_id;sensor_type;location;lat;lon;timestamp;temperature;humidity
33328;DHT22;19692;52.998;9.116;2022-09-20T00:00:48;9.40;99.90
33328;DHT22;19692;52.998;9.116;2022-09-20T00:03:15;9.40;99.90
33328;DHT22;19692;52.998;9.116;2022-09-20T00:05:43;9.40;99.90
33328;DHT22;19692;52.998;9.116;2022-09-20T00:08:14;9.40;99.90
33328;DHT22;19692;52.998;9.116;2022-09-20T00:10:41;9.40;99.90
33328;DHT22;19692;52.998;9.116;2022-09-20T00:13:10;9.40;99.90
33328;DHT22;19692;52.998;9.116;2022-09-20T00:15:44;9.40;99.90
33328;DHT22;19692;52.998;9.116;2022-09-20T00:18:11;9.40;99.90
33328;DHT22;19692;52.998;9.116;2022-09-20T00:20:47;9.40;99.90
33328;DHT22;19692;52.998;9.116;2022-09-20T00:23:14;9.40;99.90
33328;DHT22;19692;52.998;9.116;2022-09-20T00:25:40;9.30;99.90
33328;DHT22;19692;52.998;9.116;2022-09-20T00:28:07;9.30;99.90
33328;DHT22;19692;52.998;9.116;2022-09-20T00:30:33;9.30;99.90
33328;DHT22;19692;52.998;9.116;2022-09-20T00:32:59;9.30;99.90
33328;DHT22;19692;52.998;9.116;2022-09-20T00:35:25;9.30;99.90
33328;DHT22;19692;52.998;9.116;2022-09-20T00:37:51;9.20;99.90
33328;DHT22;19692;52.998;9.116;2022-09-20T00:40:20;9.20;99.90
33328;DHT22;19692;52.998;9.116;2022-09-20T00:42:46;9.20;99.90
33328;DHT22;19692;52.998;9.116;2022-09-20T00:45:24;9.20;99.90
33328;DHT22;19692;52.998;9.116;2022-09-20T00:48:04;9.20;99.90
33328;DHT22;19692;52.998;9.116;2022-09-20T00:53:48;9.20;99.90
33328;DHT22;19692;52.998;9.116;2022-09-20T00:56:14;9.20;99.90
33328;DHT22;19692;52.998;9.116;2022-09-20T00:58:49;9.20;99.90
33328;DHT22;19692;52.998;9.116;2022-09-20T01:01:18;9.20;99.90
33328;DHT22;19692;52.998;9.116;2022-09-20T01:03:44;9.20;99.90
33328;DHT22;19692;52.998;9.116;2022-09-20T01:06:12;9.30;99.90
33328;DHT22;19692;52.998;9.116;2022-09-20T01:08:41;9.20;99.90
33328;DHT22;19692;52.998;9.116;2022-09-20T01:11:10;9.20;99.90
33328;DHT22;19692;52.998;9.116;2022-09-20T01:13:36;9.20;99.90
33328;DHT22;19692;52.998;9.116;2022-09-20T01:16:05;9.20;99.90
33328;DHT22;19692;52.998;9.116;2022-09-20T01:18:32;9.20;99.90
33328;DHT22;19692;52.998;9.116;2022-09-20T01:20:59;9.20;99.90
33328;DHT22;19692;52.998;9.116;2022-09-20T01:26:44;9.20;99.90
33328;DHT22;19692;52.998;9.116;2022-09-20T01:29:43;9.10;99.90
33328;DHT22;19692;52.998;9.116;2022-09-20T01:32:22;9.10;99.90
33328;DHT22;19692;52.998;9.116;2022-09-20T01:34:54;9.10;99.90
33328;DHT22;19692;52.998;9.116;2022-09-20T01:37:38;9.10;99.90
33328;DHT22;19692;52.998;9.116;2022-09-20T01:40:25;9.10;99.90
33328;DHT22;19692;52.998;9.116;2022-09-20T01:43:25;9.00;99.90
33328;DHT22;19692;52.998;9.116;2022-09-20T01:45:53;9.00;99.90
33328;DHT22;19692;52.998;9.116;2022-09-20T01:48:37;9.00;99.90
33328;DHT22;19692;52.998;9.116;2022-09-20T01:51:46;9.00;99.90
33328;DHT22;19692;52.998;9.116;2022-09-20T01:57:20;9.00;99.90
33328;DHT22;19692;52.998;9.116;2022-09-20T02:03:03;8.90;99.90
33328;DHT22;19692;52.998;9.116;2022-09-20T02:14:47;8.80;99.90
33328;DHT22;19692;52.998;9.116;2022-09-20T02:20:47;8.90;99.90
33328;DHT22;19692;52.998;9.116;2022-09-20T02:26:38;9.10;99.90
33328;DHT22;19692;52.998;9.116;2022-09-20T02:29:41;9.10;99.90
33328;DHT22;19692;52.998;9.116;2022-09-20T02:35:18;9.20;99.90
33328;DHT22;19692;52.998;9.116;2022-09-20T02:41:22;9.30;99.90
33328;DHT22;19692;52.998;9.116;2022-09-20T02:44:17;9.30;99.90
33328;DHT22;19692;52.998;9.116;2022-09-20T02:47:05;9.30;99.90
33328;DHT22;19692;52.998;9.116;2022-09-20T02:50:30;9.30;99.90
33328;DHT22;19692;52.998;9.116;2022-09-20T02:59:06;9.40;99.90
33328;DHT22;19692;52.998;9.116;2022-09-20T03:02:14;9.40;99.90
33328;DHT22;19692;52.998;9.116;2022-09-20T03:05:07;9.40;99.90
33328;DHT22;19692;52.998;9.116;2022-09-20T03:07:41;9.50;99.90
33328;DHT22;19692;52.998;9.116;2022-09-20T03:10:34;9.50;99.90
33328;DHT22;19692;52.998;9.116;2022-09-20T03:13:42;9.50;99.90
33328;DHT22;19692;52.998;9.116;2022-09-20T03:16:44;9.60;99.90
33328;DHT22;19692;52.998;9.116;2022-09-20T03:19:52;9.60;99.90
33328;DHT22;19692;52.998;9.116;2022-09-20T03:23:12;9.60;99.90
33328;DHT22;19692;52.998;9.116;2022-09-20T03:26:21;9.60;99.90
33328;DHT22;19692;52.998;9.116;2022-09-20T03:35:01;9.70;99.90
33328;DHT22;19692;52.998;9.116;2022-09-20T03:40:54;9.70;99.90
33328;DHT22;19692;52.998;9.116;2022-09-20T03:46:44;9.70;99.90
33328;DHT22;19692;52.998;9.116;2022-09-20T03:49:30;9.70;99.90
33328;DHT22;19692;52.998;9.116;2022-09-20T03:57:55;9.70;99.90
33328;DHT22;19692;52.998;9.116;2022-09-20T04:06:55;9.70;99.90
33328;DHT22;19692;52.998;9.116;2022-09-20T04:21:58;9.60;99.90
33328;DHT22;19692;52.998;9.116;2022-09-20T04:24:52;9.60;99.90
33328;DHT22;19692;52.998;9.116;2022-09-20T04:27:45;9.60;99.90
33328;DHT22;19692;52.998;9.116;2022-09-20T04:30:19;9.50;99.90
33328;DHT22;19692;52.998;9.116;2022-09-20T04:32:48;9.50;99.90
33328;DHT22;19692;52.998;9.116;2022-09-20T04:35:53;9.50;99.90
33328;DHT22;19692;52.998;9.116;2022-09-20T04:39:03;9.50;99.90
33328;DHT22;19692;52.998;9.116;2022-09-20T04:42:09;9.40;99.90
33328;DHT22;19692;52.998;9.116;2022-09-20T04:45:05;9.30;99.90
33328;DHT22;19692;52.998;9.116;2022-09-20T04:54:44;9.10;99.90
33328;DHT22;19692;52.998;9.116;2022-09-20T05:00:21;8.90;99.90
33328;DHT22;19692;52.998;9.116;2022-09-20T05:08:56;8.70;99.90
33328;DHT22;19692;52.998;9.116;2022-09-20T05:24:25;8.80;99.90
33328;DHT22;19692;52.998;9.116;2022-09-20T05:27:16;8.90;99.90
33328;DHT22;19692;52.998;9.116;2022-09-20T05:30:18;8.90;99.90
33328;DHT22;19692;52.998;9.116;2022-09-20T05:33:15;9.00;99.90
33328;DHT22;19692;52.998;9.116;2022-09-20T05:35:57;9.00;99.90
33328;DHT22;19692;52.998;9.116;2022-09-20T05:38:45;9.10;99.90
33328;DHT22;19692;52.998;9.116;2022-09-20T05:41:41;9.10;99.90
33328;DHT22;19692;52.998;9.116;2022-09-20T05:47:35;9.10;99.90
33328;DHT22;19692;52.998;9.116;2022-09-20T05:50:45;9.20;99.90
33328;DHT22;19692;52.998;9.116;2022-09-20T06:02:26;9.40;99.90
33328;DHT22;19692;52.998;9.116;2022-09-20T06:05:28;9.40;99.90
33328;DHT22;19692;52.998;9.116;2022-09-20T06:14:19;9.60;99.90
33328;DHT22;19692;52.998;9.116;2022-09-20T06:17:33;9.80;99.90
33328;DHT22;19692;52.998;9.116;2022-09-20T06:23:37;10.00;99.90
33328;DHT22;19692;52.998;9.116;2022-09-20T06:26:09;10.10;99.90
33328;DHT22;19692;52.998;9.116;2022-09-20T06:28:54;10.20;99.90
33328;DHT22;19692;52.998;9.116;2022-09-20T06:31:23;10.30;99.90
33328;DHT22;19692;52.998;9.116;2022-09-20T06:34:03;10.30;99.90
33328;DHT22;19692;52.998;9.116;2022-09-20T06:36:32;10.40;99.90
33328;DHT22;19692;52.998;9.116;2022-09-20T06:39:36;10.50;99.90
33328;DHT22;19692;52.998;9.116;2022-09-20T06:42:24;10.50;99.90
33328;DHT22;19692;52.998;9.116;2022-09-20T06:44:50;10.60;99.90
33328;DHT22;19692;52.998;9.116;2022-09-20T06:47:16;10.60;99.90
33328;DHT22;19692;52.998;9.116;2022-09-20T06:49:43;10.60;99.90
33328;DHT22;19692;52.998;9.116;2022-09-20T06:52:16;10.50;99.90
33328;DHT22;19692;52.998;9.116;2022-09-20T06:54:48;10.50;99.90
33328;DHT22;19692;52.998;9.116;2022-09-20T06:57:20;10.50;99.90
33328;DHT22;19692;52.998;9.116;2022-09-20T06:59:48;10.60;99.90
33328;DHT22;19692;52.998;9.116;2022-09-20T07:02:13;10.70;99.90
33328;DHT22;19692;52.998;9.116;2022-09-20T07:04:39;10.80;99.90
33328;DHT22;19692;52.998;9.116;2022-09-20T07:07:06;10.80;99.90
33328;DHT22;19692;52.998;9.116;2022-09-20T07:09:33;10.80;99.90
33328;DHT22;19692;52.998;9.116;2022-09-20T07:11:58;10.90;99.90
33328;DHT22;19692;52.998;9.116;2022-09-20T07:14:25;11.00;99.90
33328;DHT22;19692;52.998;9.116;2022-09-20T07:16:52;10.90;99.90
33328;DHT22;19692;52.998;9.116;2022-09-20T07:19:19;10.90;99.90
33328;DHT22;19692;52.998;9.116;2022-09-20T07:21:45;10.90;99.90
33328;DHT22;19692;52.998;9.116;2022-09-20T07:24:10;11.00;99.90
33328;DHT22;19692;52.998;9.116;2022-09-20T07:26:39;11.10;99.90
33328;DHT22;19692;52.998;9.116;2022-09-20T07:29:19;11.10;99.90
33328;DHT22;19692;52.998;9.116;2022-09-20T07:31:45;11.20;99.90
33328;DHT22;19692;52.998;9.116;2022-09-20T07:34:10;11.10;99.90
33328;DHT22;19692;52.998;9.116;2022-09-20T07:36:37;11.10;99.90
33328;DHT22;19692;52.998;9.116;2022-09-20T07:39:02;11.20;99.90
33328;DHT22;19692;52.998;9.116;2022-09-20T07:41:28;11.20;99.90
33328;DHT22;19692;52.998;9.116;2022-09-20T07:43:56;11.20;99.90
33328;DHT22;19692;52.998;9.116;2022-09-20T07:46:41;11.20;99.90
33328;DHT22;19692;52.998;9.116;2022-09-20T07:49:09;11.10;99.90
33328;DHT22;19692;52.998;9.116;2022-09-20T07:51:35;11.20;99.90
33328;DHT22;19692;52.998;9.116;2022-09-20T07:54:01;11.30;99.90
33328;DHT22;19692;52.998;9.116;2022-09-20T07:56:26;11.40;99.90
33328;DHT22;19692;52.998;9.116;2022-09-20T07:58:52;11.50;99.90
33328;DHT22;19692;52.998;9.116;2022-09-20T08:01:18;11.60;99.90
33328;DHT22;19692;52.998;9.116;2022-09-20T08:03:46;11.70;99.90
33328;DHT22;19692;52.998;9.116;2022-09-20T08:06:12;11.60;99.90
33328;DHT22;19692;52.998;9.116;2022-09-20T08:08:43;11.60;99.90
33328;DHT22;19692;52.998;9.116;2022-09-20T08:11:14;11.80;99.90
33328;DHT22;19692;52.998;9.116;2022-09-20T08:13:49;11.80;99.90
33328;DHT22;19692;52.998;9.116;2022-09-20T08:16:16;12.00;99.90
33328;DHT22;19692;52.998;9.116;2022-09-20T08:18:49;12.10;99.90
33328;DHT22;19692;52.998;9.116;2022-09-20T08:21:17;12.30;99.90
33328;DHT22;19692;52.998;9.116;2022-09-20T08:23:45;12.40;99.90
33328;DHT22;19692;52.998;9.116;2022-09-20T08:26:17;12.70;99.90
33328;DHT22;19692;52.998;9.116;2022-09-20T08:28:45;12.70;99.90
33328;DHT22;19692;52.998;9.116;2022-09-20T08:31:14;12.70;99.90
33328;DHT22;19692;52.998;9.116;2022-09-20T08:33:41;12.70;99.90
33328;DHT22;19692;52.998;9.116;2022-09-20T08:36:14;12.80;99.90
33328;DHT22;19692;52.998;9.116;2022-09-20T08:38:42;13.00;99.90
33328;DHT22;19692;52.998;9.116;2022-09-20T08:41:18;13.20;99.90
33328;DHT22;19692;52.998;9.116;2022-09-20T08:43:54;13.50;99.90
33328;DHT22;19692;52.998;9.116;2022-09-20T08:46:35;13.60;99.90
33328;DHT22;19692;52.998;9.116;2022-09-20T08:49:05;13.80;99.90
33328;DHT22;19692;52.998;9.116;2022-09-20T08:51:35;13.90;99.90
33328;DHT22;19692;52.998;9.116;2022-09-20T08:54:04;14.00;99.90
33328;DHT22;19692;52.998;9.116;2022-09-20T08:56:34;13.90;99.90
33328;DHT22;19692;52.998;9.116;2022-09-20T08:59:02;13.90;99.90
33328;DHT22;19692;52.998;9.116;2022-09-20T09:01:28;14.00;99.90
33328;DHT22;19692;52.998;9.116;2022-09-20T09:04:01;14.00;99.90
33328;DHT22;19692;52.998;9.116;2022-09-20T09:06:38;14.10;99.90
33328;DHT22;19692;52.998;9.116;2022-09-20T09:09:04;14.00;99.90
33328;DHT22;19692;52.998;9.116;2022-09-20T09:11:30;14.10;99.90
33328;DHT22;19692;52.998;9.116;2022-09-20T09:14:03;14.10;99.90
33328;DHT22;19692;52.998;9.116;2022-09-20T09:16:51;14.30;99.90
33328;DHT22;19692;52.998;9.116;2022-09-20T09:19:32;14.40;99.90
33328;DHT22;19692;52.998;9.116;2022-09-20T09:22:08;14.60;99.90
33328;DHT22;19692;52.998;9.116;2022-09-20T09:24:34;14.90;99.90
33328;DHT22;19692;52.998;9.116;2022-09-20T09:27:14;15.20;99.90
33328;DHT22;19692;52.998;9.116;2022-09-20T09:29:49;15.40;99.90
33328;DHT22;19692;52.998;9.116;2022-09-20T09:32:23;15.50;99.90
33328;DHT22;19692;52.998;9.116;2022-09-20T09:34:54;15.40;99.90
33328;DHT22;19692;52.998;9.116;2022-09-20T09:37:28;15.10;99.90
33328;DHT22;19692;52.998;9.116;2022-09-20T09:40:13;15.00;99.90
33328;DHT22;19692;52.998;9.116;2022-09-20T09:43:09;15.10;99.90
33328;DHT22;19692;52.998;9.116;2022-09-20T09:45:47;14.90;99.90
33328;DHT22;19692;52.998;9.116;2022-09-20T09:48:28;14.80;99.90
33328;DHT22;19692;52.998;9.116;2022-09-20T09:51:17;14.70;99.90
33328;DHT22;19692;52.998;9.116;2022-09-20T09:53:46;15.10;99.90
33328;DHT22;19692;52.998;9.116;2022-09-20T09:56:40;15.30;99.90
33328;DHT22;19692;52.998;9.116;2022-09-20T10:05:27;16.00;99.90
33328;DHT22;19692;52.998;9.116;2022-09-20T10:13:39;16.90;99.90
33328;DHT22;19692;52.998;9.116;2022-09-20T10:16:13;16.80;99.90
33328;DHT22;19692;52.998;9.116;2022-09-20T10:18:58;16.60;99.90
33328;DHT22;19692;52.998;9.116;2022-09-20T10:22:04;16.70;99.90
33328;DHT22;19692;52.998;9.116;2022-09-20T10:28:33;17.20;99.90
33328;DHT22;19692;52.998;9.116;2022-09-20T10:31:33;17.30;99.90
33328;DHT22;19692;52.998;9.116;2022-09-20T10:37:22;16.40;99.90
33328;DHT22;19692;52.998;9.116;2022-09-20T10:42:48;14.60;99.90
33328;DHT22;19692;52.998;9.116;2022-09-20T10:45:56;14.20;99.90
33328;DHT22;19692;52.998;9.116;2022-09-20T10:48:39;13.70;99.90
33328;DHT22;19692;52.998;9.116;2022-09-20T10:54:30;13.20;99.90
33328;DHT22;19692;52.998;9.116;2022-09-20T11:06:14;13.30;99.90
33328;DHT22;19692;52.998;9.116;2022-09-20T11:08:44;13.20;99.90
33328;DHT22;19692;52.998;9.116;2022-09-20T11:11:22;13.30;99.90
33328;DHT22;19692;52.998;9.116;2022-09-20T11:14:02;13.40;99.90
33328;DHT22;19692;52.998;9.116;2022-09-20T11:16:50;13.40;99.90
33328;DHT22;19692;52.998;9.116;2022-09-20T11:23:02;13.30;99.90
33328;DHT22;19692;52.998;9.116;2022-09-20T11:25:28;13.20;99.90
33328;DHT22;19692;52.998;9.116;2022-09-20T11:28:14;13.30;99.90
33328;DHT22;19692;52.998;9.116;2022-09-20T11:31:01;13.30;99.90
33328;DHT22;19692;52.998;9.116;2022-09-20T11:33:42;13.50;99.90
33328;DHT22;19692;52.998;9.116;2022-09-20T11:36:16;13.60;99.90
33328;DHT22;19692;52.998;9.116;2022-09-20T11:38:48;13.70;99.90
33328;DHT22;19692;52.998;9.116;2022-09-20T11:41:26;13.70;99.90
33328;DHT22;19692;52.998;9.116;2022-09-20T11:43:56;13.80;99.90
33328;DHT22;19692;52.998;9.116;2022-09-20T11:46:50;14.00;99.90
33328;DHT22;19692;52.998;9.116;2022-09-20T11:49:27;14.10;99.90
33328;DHT22;19692;52.998;9.116;2022-09-20T11:55:00;14.80;99.90
33328;DHT22;19692;52.998;9.116;2022-09-20T11:57:32;15.70;99.90
33328;DHT22;19692;52.998;9.116;2022-09-20T12:00:01;16.10;99.90
33328;DHT22;19692;52.998;9.116;2022-09-20T12:02:55;16.20;99.90
33328;DHT22;19692;52.998;9.116;2022-09-20T12:05:39;16.10;99.90
33328;DHT22;19692;52.998;9.116;2022-09-20T12:08:17;16.00;99.90
33328;DHT22;19692;52.998;9.116;2022-09-20T12:11:01;16.30;99.90
33328;DHT22;19692;52.998;9.116;2022-09-20T12:13:30;16.30;99.90
33328;DHT22;19692;52.998;9.116;2022-09-20T12:16:15;16.30;99.90
33328;DHT22;19692;52.998;9.116;2022-09-20T12:21:20;16.00;99.90
33328;DHT22;19692;52.998;9.116;2022-09-20T12:24:15;16.20;99.90
33328;DHT22;19692;52.998;9.116;2022-09-20T12:26:44;16.10;99.90
33328;DHT22;19692;52.998;9.116;2022-09-20T12:31:49;16.40;99.90
33328;DHT22;19692;52.998;9.116;2022-09-20T12:36:44;16.40;99.90
33328;DHT22;19692;52.998;9.116;2022-09-20T12:39:37;16.30;99.90
33328;DHT22;19692;52.998;9.116;2022-09-20T12:47:20;16.60;99.90
33328;DHT22;19692;52.998;9.116;2022-09-20T13:08:41;18.40;99.90
33328;DHT22;19692;52.998;9.116;2022-09-20T13:11:22;18.10;99.90
33328;DHT22;19692;52.998;9.116;2022-09-20T13:16:50;18.80;99.90
33328;DHT22;19692;52.998;9.116;2022-09-20T13:19:20;19.30;99.90
33328;DHT22;19692;52.998;9.116;2022-09-20T13:21:57;19.30;99.90
33328;DHT22;19692;52.998;9.116;2022-09-20T13:24:29;19.20;99.90
33328;DHT22;19692;52.998;9.116;2022-09-20T13:27:04;19.00;99.90
33328;DHT22;19692;52.998;9.116;2022-09-20T13:32:28;18.80;99.90
33328;DHT22;19692;52.998;9.116;2022-09-20T13:35:04;18.70;99.90
33328;DHT22;19692;52.998;9.116;2022-09-20T13:37:38;19.10;99.90
33328;DHT22;19692;52.998;9.116;2022-09-20T13:40:34;19.00;99.90
33328;DHT22;19692;52.998;9.116;2022-09-20T13:43:04;19.00;99.90
33328;DHT22;19692;52.998;9.116;2022-09-20T13:45:41;18.90;99.90
33328;DHT22;19692;52.998;9.116;2022-09-20T13:48:08;19.10;99.90
33328;DHT22;19692;52.998;9.116;2022-09-20T13:50:35;18.90;99.90
33328;DHT22;19692;52.998;9.116;2022-09-20T13:53:14;18.30;99.90
33328;DHT22;19692;52.998;9.116;2022-09-20T13:55:42;18.10;99.90
33328;DHT22;19692;52.998;9.116;2022-09-20T13:58:18;17.90;99.90
33328;DHT22;19692;52.998;9.116;2022-09-20T14:00:50;18.10;99.90
33328;DHT22;19692;52.998;9.116;2022-09-20T14:03:19;18.20;99.90
33328;DHT22;19692;52.998;9.116;2022-09-20T14:05:48;18.50;99.90
33328;DHT22;19692;52.998;9.116;2022-09-20T14:08:27;18.80;99.90
33328;DHT22;19692;52.998;9.116;2022-09-20T14:11:14;19.10;99.90
33328;DHT22;19692;52.998;9.116;2022-09-20T14:13:43;19.30;99.90
33328;DHT22;19692;52.998;9.116;2022-09-20T14:16:11;19.40;99.90
33328;DHT22;19692;52.998;9.116;2022-09-20T14:18:39;19.20;99.90
33328;DHT22;19692;52.998;9.116;2022-09-20T14:21:09;19.30;99.90
33328;DHT22;19692;52.998;9.116;2022-09-20T14:23:55;18.90;99.90
33328;DHT22;19692;52.998;9.116;2022-09-20T14:26:26;19.20;99.90
33328;DHT22;19692;52.998;9.116;2022-09-20T14:28:53;19.40;99.90
33328;DHT22;19692;52.998;9.116;2022-09-20T14:31:23;19.50;99.90
33328;DHT22;19692;52.998;9.116;2022-09-20T14:33:53;19.10;99.90
33328;DHT22;19692;52.998;9.116;2022-09-20T14:36:22;18.60;99.90
33328;DHT22;19692;52.998;9.116;2022-09-20T14:38:54;18.40;99.90
33328;DHT22;19692;52.998;9.116;2022-09-20T14:41:34;18.40;99.90
33328;DHT22;19692;52.998;9.116;2022-09-20T14:44:03;17.80;99.90
33328;DHT22;19692;52.998;9.116;2022-09-20T14:46:33;17.40;99.90
33328;DHT22;19692;52.998;9.116;2022-09-20T14:52:20;17.00;99.90
33328;DHT22;19692;52.998;9.116;2022-09-20T14:55:09;16.60;99.90
33328;DHT22;19692;52.998;9.116;2022-09-20T14:57:41;16.60;99.90
33328;DHT22;19692;52.998;9.116;2022-09-20T15:00:12;16.50;99.90
33328;DHT22;19692;52.998;9.116;2022-09-20T15:02:44;16.10;99.90
33328;DHT22;19692;52.998;9.116;2022-09-20T15:07:52;16.30;99.90
33328;DHT22;19692;52.998;9.116;2022-09-20T15:10:22;16.60;99.90
33328;DHT22;19692;52.998;9.116;2022-09-20T15:12:50;17.00;99.90
33328;DHT22;19692;52.998;9.116;2022-09-20T15:15:17;17.10;99.90
33328;DHT22;19692;52.998;9.116;2022-09-20T15:17:44;16.90;99.90
33328;DHT22;19692;52.998;9.116;2022-09-20T15:20:16;16.90;99.90
33328;DHT22;19692;52.998;9.116;2022-09-20T15:22:46;16.90;99.90
33328;DHT22;19692;52.998;9.116;2022-09-20T15:25:15;17.20;99.90
33328;DHT22;19692;52.998;9.116;2022-09-20T15:27:43;17.20;99.90
33328;DHT22;19692;52.998;9.116;2022-09-20T15:30:12;17.40;99.90
33328;DHT22;19692;52.998;9.116;2022-09-20T15:32:41;17.50;99.90
33328;DHT22;19692;52.998;9.116;2022-09-20T15:35:11;17.50;99.90
33328;DHT22;19692;52.998;9.116;2022-09-20T15:37:39;17.50;99.90
33328;DHT22;19692;52.998;9.116;2022-09-20T15:40:06;17.50;99.90
33328;DHT22;19692;52.998;9.116;2022-09-20T15:42:35;17.60;99.90
33328;DHT22;19692;52.998;9.116;2022-09-20T15:45:05;17.70;99.90
33328;DHT22;19692;52.998;9.116;2022-09-20T15:47:36;17.90;99.90
33328;DHT22;19692;52.998;9.116;2022-09-20T15:50:07;18.10;99.90
33328;DHT22;19692;52.998;9.116;2022-09-20T15:52:38;18.20;99.90
33328;DHT22;19692;52.998;9.116;2022-09-20T15:55:06;18.40;99.90
33328;DHT22;19692;52.998;9.116;2022-09-20T15:57:32;18.20;99.90
33328;DHT22;19692;52.998;9.116;2022-09-20T15:59:58;18.20;99.90
33328;DHT22;19692;52.998;9.116;2022-09-20T16:02:25;18.00;99.90
33328;DHT22;19692;52.998;9.116;2022-09-20T16:04:52;17.70;99.90
33328;DHT22;19692;52.998;9.116;2022-09-20T16:07:22;17.20;99.90
33328;DHT22;19692;52.998;9.116;2022-09-20T16:09:53;16.60;99.90
33328;DHT22;19692;52.998;9.116;2022-09-20T16:12:20;16.10;99.90
33328;DHT22;19692;52.998;9.116;2022-09-20T16:14:47;15.80;99.90
33328;DHT22;19692;52.998;9.116;2022-09-20T16:17:13;15.80;99.90
33328;DHT22;19692;52.998;9.116;2022-09-20T16:19:39;16.20;99.90
33328;DHT22;19692;52.998;9.116;2022-09-20T16:22:06;16.20;99.90
33328;DHT22;19692;52.998;9.116;2022-09-20T16:24:34;16.00;99.90
33328;DHT22;19692;52.998;9.116;2022-09-20T16:27:02;16.00;99.90
33328;DHT22;19692;52.998;9.116;2022-09-20T16:29:30;16.10;99.90
33328;DHT22;19692;52.998;9.116;2022-09-20T16:31:57;16.50;99.90
33328;DHT22;19692;52.998;9.116;2022-09-20T16:34:30;16.40;99.90
33328;DHT22;19692;52.998;9.116;2022-09-20T16:37:05;16.40;99.90
33328;DHT22;19692;52.998;9.116;2022-09-20T16:39:36;16.30;99.90
33328;DHT22;19692;52.998;9.116;2022-09-20T16:42:04;16.30;99.90
33328;DHT22;19692;52.998;9.116;2022-09-20T16:44:35;16.10;99.90
33328;DHT22;19692;52.998;9.116;2022-09-20T16:47:07;16.00;99.90
33328;DHT22;19692;52.998;9.116;2022-09-20T16:49:35;16.10;99.90
33328;DHT22;19692;52.998;9.116;2022-09-20T16:52:06;16.20;99.90
33328;DHT22;19692;52.998;9.116;2022-09-20T16:54:32;16.20;99.90
33328;DHT22;19692;52.998;9.116;2022-09-20T16:56:58;16.20;99.90
33328;DHT22;19692;52.998;9.116;2022-09-20T16:59:24;16.10;99.90
33328;DHT22;19692;52.998;9.116;2022-09-20T17:01:50;16.00;99.90
33328;DHT22;19692;52.998;9.116;2022-09-20T17:04:17;15.90;99.90
33328;DHT22;19692;52.998;9.116;2022-09-20T17:06:43;15.80;99.90
33328;DHT22;19692;52.998;9.116;2022-09-20T17:09:10;15.60;99.90
33328;DHT22;19692;52.998;9.116;2022-09-20T17:11:39;15.50;99.90
33328;DHT22;19692;52.998;9.116;2022-09-20T17:14:10;15.40;99.90
33328;DHT22;19692;52.998;9.116;2022-09-20T17:16:38;15.30;99.90
33328;DHT22;19692;52.998;9.116;2022-09-20T17:19:07;15.10;99.90
33328;DHT22;19692;52.998;9.116;2022-09-20T17:21:40;14.90;99.90
33328;DHT22;19692;52.998;9.116;2022-09-20T17:24:08;14.70;99.90
33328;DHT22;19692;52.998;9.116;2022-09-20T17:26:36;14.60;99.90
33328;DHT22;19692;52.998;9.116;2022-09-20T17:29:06;14.50;99.90
33328;DHT22;19692;52.998;9.116;2022-09-20T17:31:36;14.30;99.90
33328;DHT22;19692;52.998;9.116;2022-09-20T17:34:04;14.20;99.90
33328;DHT22;19692;52.998;9.116;2022-09-20T17:36:33;14.20;99.90
33328;DHT22;19692;52.998;9.116;2022-09-20T17:39:01;14.00;99.90
33328;DHT22;19692;52.998;9.116;2022-09-20T17:41:28;14.00;99.90
33328;DHT22;19692;52.998;9.116;2022-09-20T17:43:56;13.90;99.90
33328;DHT22;19692;52.998;9.116;2022-09-20T17:46:24;13.80;99.90
33328;DHT22;19692;52.998;9.116;2022-09-20T17:48:55;13.60;99.90
33328;DHT22;19692;52.998;9.116;2022-09-20T17:51:25;13.40;99.90
33328;DHT22;19692;52.998;9.116;2022-09-20T17:53:55;13.10;99.90
33328;DHT22;19692;52.998;9.116;2022-09-20T17:56:21;12.80;99.90
33328;DHT22;19692;52.998;9.116;2022-09-20T17:58:49;12.60;99.90
33328;DHT22;19692;52.998;9.116;2022-09-20T18:01:17;12.40;99.90
33328;DHT22;19692;52.998;9.116;2022-09-20T18:03:45;12.30;99.90
33328;DHT22;19692;52.998;9.116;2022-09-20T18:06:23;12.20;99.90
33328;DHT22;19692;52.998;9.116;2022-09-20T18:08:59;12.20;99.90
33328;DHT22;19692;52.998;9.116;2022-09-20T18:11:38;12.20;99.90
33328;DHT22;19692;52.998;9.116;2022-09-20T18:14:06;12.30;99.90
33328;DHT22;19692;52.998;9.116;2022-09-20T18:16:33;12.30;99.90
33328;DHT22;19692;52.998;9.116;2022-09-20T18:18:59;12.30;99.90
33328;DHT22;19692;52.998;9.116;2022-09-20T18:21:27;12.20;99.90
33328;DHT22;19692;52.998;9.116;2022-09-20T18:23:54;12.20;99.90
33328;DHT22;19692;52.998;9.116;2022-09-20T18:26:23;12.10;99.90
33328;DHT22;19692;52.998;9.116;2022-09-20T18:28:58;12.00;99.90
33328;DHT22;19692;52.998;9.116;2022-09-20T18:31:31;12.10;99.90
33328;DHT22;19692;52.998;9.116;2022-09-20T18:34:01;12.10;99.90
33328;DHT22;19692;52.998;9.116;2022-09-20T18:36:32;12.00;99.90
33328;DHT22;19692;52.998;9.116;2022-09-20T18:39:00;12.00;99.90
33328;DHT22;19692;52.998;9.116;2022-09-20T18:41:30;11.90;99.90
33328;DHT22;19692;52.998;9.116;2022-09-20T18:43:58;11.80;99.90
33328;DHT22;19692;52.998;9.116;2022-09-20T18:46:26;11.70;99.90
33328;DHT22;19692;52.998;9.116;2022-09-20T18:48:54;11.60;99.90
33328;DHT22;19692;52.998;9.116;2022-09-20T18:51:26;11.50;99.90
33328;DHT22;19692;52.998;9.116;2022-09-20T18:53:55;11.40;99.90
33328;DHT22;19692;52.998;9.116;2022-09-20T18:56:34;11.30;99.90
33328;DHT22;19692;52.998;9.116;2022-09-20T18:59:19;11.20;99.90
33328;DHT22;19692;52.998;9.116;2022-09-20T19:07:53;11.20;99.90
33328;DHT22;19692;52.998;9.116;2022-09-20T19:10:38;11.10;99.90
33328;DHT22;19692;52.998;9.116;2022-09-20T19:13:27;11.10;99.90
33328;DHT22;19692;52.998;9.116;2022-09-20T19:16:03;10.90;99.90
33328;DHT22;19692;52.998;9.116;2022-09-20T19:22:14;10.60;99.90
33328;DHT22;19692;52.998;9.116;2022-09-20T19:25:13;10.60;99.90
33328;DHT22;19692;52.998;9.116;2022-09-20T19:27:44;10.50;99.90
33328;DHT22;19692;52.998;9.116;2022-09-20T19:30:14;10.50;99.90
33328;DHT22;19692;52.998;9.116;2022-09-20T19:32:41;10.50;99.90
33328;DHT22;19692;52.998;9.116;2022-09-20T19:35:31;10.40;99.90
33328;DHT22;19692;52.998;9.116;2022-09-20T19:43:51;10.40;99.90
33328;DHT22;19692;52.998;9.116;2022-09-20T19:46:35;10.40;99.90
33328;DHT22;19692;52.998;9.116;2022-09-20T19:51:45;10.30;99.90
33328;DHT22;19692;52.998;9.116;2022-09-20T19:54:12;10.20;99.90
33328;DHT22;19692;52.998;9.116;2022-09-20T19:56:46;10.20;99.90
33328;DHT22;19692;52.998;9.116;2022-09-20T19:59:20;10.00;99.90
33328;DHT22;19692;52.998;9.116;2022-09-20T20:01:47;10.00;99.90
33328;DHT22;19692;52.998;9.116;2022-09-20T20:04:13;10.00;99.90
33328;DHT22;19692;52.998;9.116;2022-09-20T20:06:58;9.90;99.90
33328;DHT22;19692;52.998;9.116;2022-09-20T20:10:01;9.90;99.90
33328;DHT22;19692;52.998;9.116;2022-09-20T20:12:55;9.80;99.90
33328;DHT22;19692;52.998;9.116;2022-09-20T20:15:41;9.90;99.90